Cotati, CA (94926)

10:08 AM PST on January 27, 2015 (GMT -0800)
Rohnert Park | Change Station
CLOSE
Current Station
Personal Weather Station
Location: Rohnert Park, CA
Elevation: 108 ft
Nearby Weather Stations

Elev 108 ft 38.34 °N, 122.70 °W | Updated 16 seconds ago

Partly Cloudy
Partly Cloudy
54.9 °F
Feels Like 54.9 °F
N
0.0
Wind Variable Wind from West
Gusts 1.0 mph

Today
High -- | Low -- °F
--% Chance of Precip.
Yesterday
High -- | Low -- °F
Precip. -- in
7:20 AM 5:27 PM
First Quarter, 56% visible
Pressure 30.22 in
Visibility 8.0 miles
Clouds Clear
Dew Point 53 °F
Humidity 92%
Rainfall 0.00 in
Snow Depth Not available.
UV 2 out of 12
Pollen 6.80 out of 12
Air Quality Not available.
Flu Activity Not available.
METAR KO69 271755Z AUTO 00000KT 8SM CLR 12/10 A3022 RMK AO1

More Conditions Fewer Conditions

Pressure 30.22 in
Visibility 8.0 miles
Clouds Clear
Dew Point 53 °F
Humidity 92%
Rainfall 0.00 in
Snow Depth Not available.
UV 2 out of 12
Pollen 6.80 out of 12
Air Quality Not available.
Flu Activity Not available.
METAR KO69 271755Z AUTO 00000KT 8SM CLR 12/10 A3022 RMK AO1

More Conditions Fewer Conditions

10-Day Weather Forecast

Almanac

Astronomy

Jan. 27, 2015 Rise Set
Actual Time
Civil Twilight
Nautical Twilight
Astronomical Twilight
Moon
Length of Visible Light
Length of Day
Tomorrow will be .
, % of the Moon is Illuminated

Today's Extremes

State Highs State Lows

Community

WunderPhotos

Upload Photos

1,790,745 photos uploaded!

WunderBlogs® & News

Nearby

Air Quality

  Air Quality AQ Index Pollutant
Not available.

Snow Depth

Station Depth Elevation

Earthquake Activity

City Distance Mag. Time & Date
Minimum magnitude displayed is 2.5.

Coastal Water Temperatures

Place Temperature

Nearby Weather Stations